Time;durP1;ratioP1;P1;durP2;ratioP2;P2;SDS_P1;SDS_P2;PMS_P1;PMS_P2;Temp;Humidity;BMP_temperature;BMP_pressure;BME280_temperature;BME280_humidity;BME280_pressure;Samples;Min_cycle;Max_cycle;Signal;HPM_P1;HPM_P2
2021/09/22 00:01:46;;;;;;;2.90;0.68;;;18.10;66.40;;;;;;4983501;28;95798;-49
2021/09/22 00:04:16;;;;;;;2.33;1.15;;;18.10;66.40;;;;;;4984726;28;95823;-51
2021/09/22 00:06:48;;;;;;;1.48;1.10;;;18.10;66.50;;;;;;4986584;28;95873;-49
2021/09/22 00:09:18;;;;;;;3.83;0.80;;;18.00;66.40;;;;;;4979538;28;96025;-50
2021/09/22 00:11:50;;;;;;;2.35;0.85;;;18.10;66.50;;;;;;4986313;28;95945;-48
2021/09/22 00:14:22;;;;;;;0.95;0.70;;;18.00;66.50;;;;;;4976847;28;95960;-49
2021/09/22 00:16:53;;;;;;;1.33;0.90;;;18.00;66.60;;;;;;4985825;28;95942;-51
2021/09/22 00:19:25;;;;;;;0.80;0.80;;;18.00;66.50;;;;;;4983595;28;95690;-49
2021/09/22 00:21:55;;;;;;;2.00;1.00;;;18.00;66.40;;;;;;4984499;28;95949;-49
2021/09/22 00:24:26;;;;;;;1.98;0.90;;;18.00;66.60;;;;;;4986241;28;95935;-48
2021/09/22 00:26:58;;;;;;;2.25;0.80;;;18.00;66.80;;;;;;4981901;28;95969;-50
2021/09/22 00:29:28;;;;;;;;;;;18.00;66.60;;;;;;4987444;28;95356;-49
2021/09/22 00:31:58;;;;;;;19.33;1.23;;;18.10;66.80;;;;;;4983757;28;96359;-49
2021/09/22 00:34:29;;;;;;;0.97;0.70;;;18.20;66.70;;;;;;4986027;28;96585;-48
2021/09/22 00:37:00;;;;;;;;;;;18.20;66.70;;;;;;4978031;28;98871;-50
2021/09/22 00:39:31;;;;;;;0.95;0.70;;;18.30;66.60;;;;;;4980456;28;98571;-48
2021/09/22 00:42:06;;;;;;;0.63;0.40;;;18.30;66.60;;;;;;4986231;28;95784;-49
2021/09/22 00:44:58;;;;;;;0.82;0.50;;;18.40;66.60;;;;;;4986289;28;96657;-49
2021/09/22 00:47:30;;;;;;;0.80;0.70;;;18.40;66.50;;;;;;4974295;28;96295;-56
2021/09/22 00:50:09;;;;;;;1.02;0.60;;;18.40;66.60;;;;;;5011093;27;95740;-55
2021/09/22 00:52:41;;;;;;;0.50;0.50;;;18.40;66.70;;;;;;4982493;28;95759;-49
2021/09/22 00:55:13;;;;;;;0.95;0.75;;;18.50;66.70;;;;;;4984288;28;96776;-49
2021/09/22 00:57:56;;;;;;;0.82;0.65;;;18.50;56.90;;;;;;4980089;28;96028;-51
2021/09/22 01:00:29;;;;;;;1.13;1.00;;;18.40;66.70;;;;;;4979366;28;98120;-51
2021/09/22 01:03:00;;;;;;;2.60;0.60;;;18.40;66.70;;;;;;4979039;28;95833;-52
2021/09/22 01:05:31;;;;;;;1.40;0.57;;;18.40;66.80;;;;;;4983171;28;96707;-49
2021/09/22 01:08:05;;;;;;;0.75;0.60;;;18.40;66.90;;;;;;4979377;28;98310;-54
2021/09/22 01:10:37;;;;;;;0.63;0.63;;;18.40;66.90;;;;;;4974686;28;96378;-55
2021/09/22 01:13:08;;;;;;;0.93;0.70;;;18.40;66.90;;;;;;4982917;28;95871;-51
2021/09/22 01:15:43;;;;;;;1.45;0.50;;;18.40;66.90;;;;;;4975407;28;98550;-50
2021/09/22 01:18:16;;;;;;;1.10;0.90;;;18.40;67.20;;;;;;4994791;28;97887;-50
2021/09/22 01:20:50;;;;;;;1.65;0.57;;;18.40;67.20;;;;;;4972581;28;95591;-50
2021/09/22 01:23:21;;;;;;;2.63;0.80;;;18.50;67.40;;;;;;4980835;28;96433;-50
2021/09/22 01:25:55;;;;;;;0.95;0.82;;;18.50;67.50;;;;;;4981887;28;98475;-51
2021/09/22 01:28:30;;;;;;;1.30;1.00;;;18.50;67.60;;;;;;4980113;28;98430;-49
2021/09/22 01:31:04;;;;;;;1.02;0.85;;;18.60;67.60;;;;;;4985547;28;95444;-51
2021/09/22 01:33:38;;;;;;;0.60;0.52;;;18.60;67.70;;;;;;4983566;28;95957;-50
2021/09/22 01:36:15;;;;;;;0.75;0.70;;;18.70;67.90;;;;;;4996918;28;96670;-53
2021/09/22 01:38:54;;;;;;;1.45;1.00;;;18.70;67.90;;;;;;4977612;28;96823;-53
2021/09/22 01:41:28;;;;;;;1.55;1.05;;;18.80;67.90;;;;;;4998906;28;96179;-49
2021/09/22 01:44:03;;;;;;;0.70;0.60;;;18.80;67.90;;;;;;5012916;27;96041;-53
2021/09/22 01:46:52;;;;;;;0.80;0.73;;;18.80;68.00;;;;;;4982159;28;96010;-52
2021/09/22 01:49:37;;;;;;;0.70;0.70;;;18.90;68.10;;;;;;4980252;28;95978;-58
2021/09/22 01:52:12;;;;;;;1.13;1.00;;;18.90;68.10;;;;;;4978965;28;95856;-58
2021/09/22 01:54:52;;;;;;;1.35;0.70;;;19.00;68.20;;;;;;4979809;28;96112;-49
2021/09/22 01:57:24;;;;;;;1.00;0.90;;;19.00;68.20;;;;;;4979920;28;98229;-54
2021/09/22 01:59:56;;;;;;;1.30;0.68;;;19.00;68.10;;;;;;5015359;27;96128;-56
2021/09/22 02:02:42;;;;;;;1.10;0.63;;;19.10;68.20;;;;;;4981176;28;96177;-55
2021/09/22 02:05:37;;;;;;;0.80;0.80;;;19.10;68.20;;;;;;4972236;28;95418;-54
2021/09/22 02:08:17;;;;;;;0.70;0.70;;;19.20;68.20;;;;;;5009472;27;97964;-53
2021/09/22 02:10:51;;;;;;;3.15;0.85;;;19.20;68.20;;;;;;4976309;28;96029;-53
2021/09/22 02:13:25;;;;;;;1.20;0.80;;;19.20;67.90;;;;;;4983897;28;95912;-53
2021/09/22 02:15:58;;;;;;;0.70;0.70;;;19.20;67.90;;;;;;4975503;28;95434;-52
2021/09/22 02:18:51;;;;;;;0.57;0.52;;;19.30;68.10;;;;;;4972199;28;96440;-51
2021/09/22 02:21:22;;;;;;;1.17;0.70;;;19.30;68.00;;;;;;4963929;28;97568;-50
2021/09/22 02:23:53;;;;;;;0.88;0.73;;;19.30;68.00;;;;;;4967097;28;95776;-51
2021/09/22 02:26:25;;;;;;;0.65;0.60;;;19.30;68.00;;;;;;4981867;28;95538;-56
2021/09/22 02:28:57;;;;;;;1.00;0.80;;;19.40;68.00;;;;;;4982866;28;98511;-52
2021/09/22 02:31:27;;;;;;;1.00;0.43;;;19.40;67.30;;;;;;4961878;28;97381;-57
2021/09/22 02:34:01;;;;;;;1.13;0.80;;;19.50;66.90;;;;;;4972380;28;95840;-55
2021/09/22 02:36:32;;;;;;;1.00;0.90;;;19.60;66.70;;;;;;4987409;28;95730;-51
2021/09/22 02:39:10;;;;;;;1.30;0.70;;;19.60;66.90;;;;;;5009371;27;96777;-50
2021/09/22 02:41:47;;;;;;;0.70;0.70;;;19.60;67.00;;;;;;4985593;28;97406;-52
2021/09/22 02:44:19;;;;;;;0.80;0.80;;;19.60;67.10;;;;;;4987106;28;95908;-53
2021/09/22 02:46:51;;;;;;;0.93;0.90;;;19.60;67.20;;;;;;4984717;28;95727;-50
2021/09/22 02:49:21;;;;;;;0.70;0.70;;;19.60;67.20;;;;;;4985463;28;96109;-56
2021/09/22 02:51:56;;;;;;;0.68;0.68;;;19.70;67.90;;;;;;5021892;27;95757;-56
2021/09/22 02:54:28;;;;;;;1.05;0.90;;;19.70;67.30;;;;;;4982928;28;95847;-55
2021/09/22 02:57:16;;;;;;;0.70;0.60;;;19.70;67.30;;;;;;5018927;27;96002;-53
2021/09/22 02:59:48;;;;;;;1.00;0.77;;;19.70;67.30;;;;;;5018728;27;98634;-50
2021/09/22 03:02:24;;;;;;;0.82;0.77;;;19.80;67.40;;;;;;5013598;27;97270;-56
2021/09/22 03:04:56;;;;;;;0.63;0.63;;;19.80;67.40;;;;;;4983963;28;96009;-56
2021/09/22 03:07:28;;;;;;;;;;;19.80;67.40;;;;;;4999206;28;95461;-57
2021/09/22 03:10:00;;;;;;;0.70;0.70;;;19.80;67.50;;;;;;4979975;28;96521;-50
2021/09/22 03:12:35;;;;;;;0.70;0.70;;;19.90;67.50;;;;;;4980998;28;96527;-51
2021/09/22 03:15:06;;;;;;;0.68;0.68;;;19.90;67.50;;;;;;4981951;28;95879;-53
2021/09/22 03:17:39;;;;;;;0.73;0.73;;;19.90;67.50;;;;;;4997920;28;96202;-55
2021/09/22 03:20:12;;;;;;;1.27;1.10;;;19.80;65.40;;;;;;5018434;27;96417;-52
2021/09/22 03:22:45;;;;;;;0.70;0.70;;;19.70;65.10;;;;;;5014401;27;95836;-57
2021/09/22 03:25:19;;;;;;;0.65;0.65;;;19.50;65.60;;;;;;4970034;28;95754;-55
2021/09/22 03:27:51;;;;;;;0.85;0.70;;;19.40;65.90;;;;;;4975691;28;95800;-53
2021/09/22 03:30:21;;;;;;;1.20;1.10;;;19.40;66.30;;;;;;4982337;28;96352;-53
2021/09/22 03:33:05;;;;;;;1.02;1.02;;;19.30;66.30;;;;;;5015333;27;103312;-54
2021/09/22 03:35:37;;;;;;;0.70;0.70;;;19.20;66.50;;;;;;4999173;28;96055;-52
2021/09/22 03:38:08;;;;;;;1.00;1.00;;;19.20;66.60;;;;;;4974140;28;98067;-51
2021/09/22 03:40:40;;;;;;;;;;;19.10;66.60;;;;;;4982940;28;97952;-55
2021/09/22 03:43:10;;;;;;;2.80;0.80;;;19.10;66.70;;;;;;5015746;27;95793;-51
2021/09/22 03:45:41;;;;;;;0.85;0.82;;;19.10;66.60;;;;;;4980050;28;96054;-50
2021/09/22 03:48:12;;;;;;;1.50;0.90;;;19.10;66.70;;;;;;4979076;28;95469;-49
2021/09/22 03:50:43;;;;;;;3.35;0.93;;;19.10;67.10;;;;;;4995068;28;98450;-54
2021/09/22 03:53:19;;;;;;;3.22;0.77;;;19.20;67.20;;;;;;4980240;28;95629;-52
2021/09/22 03:55:52;;;;;;;2.25;0.68;;;19.30;67.10;;;;;;4991283;28;95941;-53
2021/09/22 03:58:23;;;;;;;;;;;19.40;67.00;;;;;;4982658;28;95722;-53
2021/09/22 04:00:55;;;;;;;2.15;0.80;;;19.40;66.80;;;;;;4981040;28;96311;-54
2021/09/22 04:03:27;;;;;;;3.63;0.85;;;19.30;66.30;;;;;;4981702;28;97943;-54
2021/09/22 04:05:59;;;;;;;1.75;0.80;;;19.30;66.10;;;;;;4980323;28;96500;-50
2021/09/22 04:08:31;;;;;;;1.42;1.10;;;19.20;66.20;;;;;;4980124;28;95958;-52
2021/09/22 04:11:03;;;;;;;1.10;1.00;;;19.20;66.40;;;;;;4978335;28;96158;-51
2021/09/22 04:13:34;;;;;;;1.50;0.90;;;19.10;66.30;;;;;;4983655;28;95836;-53
2021/09/22 04:16:10;;;;;;;1.73;0.80;;;19.10;66.40;;;;;;5001524;28;99429;-51
2021/09/22 04:18:42;;;;;;;2.70;1.00;;;19.00;66.50;;;;;;4974441;28;96111;-52
2021/09/22 04:21:13;;;;;;;0.80;0.80;;;19.00;66.50;;;;;;5007211;27;98199;-52
2021/09/22 04:23:43;;;;;;;1.45;0.98;;;19.00;66.60;;;;;;5012419;27;95804;-54
2021/09/22 04:26:13;;;;;;;0.88;0.88;;;19.00;66.80;;;;;;4983751;28;95682;-53
2021/09/22 04:28:50;;;;;;;1.27;0.82;;;18.90;66.80;;;;;;4985106;28;96051;-50
2021/09/22 04:31:42;;;;;;;2.38;0.93;;;18.90;66.90;;;;;;4979299;28;95796;-53
2021/09/22 04:34:31;;;;;;;1.10;0.90;;;18.90;67.00;;;;;;5003813;27;97433;-54
2021/09/22 04:37:21;;;;;;;1.10;1.00;;;18.90;67.00;;;;;;4979900;28;95812;-55
2021/09/22 04:40:12;;;;;;;1.17;0.88;;;18.90;67.00;;;;;;4978647;28;95929;-52
2021/09/22 04:43:02;;;;;;;1.00;0.90;;;18.90;67.10;;;;;;4988322;28;95616;-55
2021/09/22 04:45:51;;;;;;;2.33;1.10;;;18.90;67.20;;;;;;4980933;28;96518;-49
2021/09/22 04:48:41;;;;;;;1.42;0.90;;;18.90;60.40;;;;;;4971779;28;95662;-52
2021/09/22 04:51:31;;;;;;;1.08;1.00;;;18.90;67.40;;;;;;4985254;28;97579;-51
2021/09/22 04:54:20;;;;;;;0.95;0.95;;;19.00;67.50;;;;;;4976762;28;95721;-49
2021/09/22 04:57:10;;;;;;;0.80;0.80;;;19.10;67.70;;;;;;4979652;28;96012;-51
2021/09/22 05:00:00;;;;;;;1.17;1.10;;;19.10;67.60;;;;;;4985658;28;95863;-52
2021/09/22 05:02:51;;;;;;;0.70;0.70;;;19.20;67.70;;;;;;4984904;28;95761;-50
2021/09/22 05:05:43;;;;;;;0.82;0.80;;;19.30;67.70;;;;;;4984235;28;96186;-53
2021/09/22 05:08:33;;;;;;;0.88;0.82;;;19.40;67.90;;;;;;4977648;28;95648;-51
2021/09/22 05:11:25;;;;;;;0.80;0.80;;;19.40;67.90;;;;;;4978854;28;95906;-56
2021/09/22 05:14:15;;;;;;;0.47;0.47;;;19.50;67.80;;;;;;4981588;28;95736;-51
2021/09/22 05:17:05;;;;;;;1.05;1.05;;;19.50;67.90;;;;;;4980725;28;96355;-52
2021/09/22 05:19:53;;;;;;;0.60;0.60;;;19.60;67.90;;;;;;4984327;28;95682;-53
2021/09/22 05:22:41;;;;;;;0.93;0.93;;;19.70;68.00;;;;;;4968886;28;98551;-55
2021/09/22 05:25:30;;;;;;;0.77;0.57;;;19.70;68.00;;;;;;4982572;28;96295;-53
2021/09/22 05:28:20;;;;;;;0.82;0.82;;;19.80;68.10;;;;;;4980321;28;96035;-52
2021/09/22 05:31:07;;;;;;;1.08;0.88;;;19.80;68.00;;;;;;4975469;28;95876;-54
2021/09/22 05:33:57;;;;;;;1.00;0.98;;;19.90;68.10;;;;;;4992656;28;95817;-51
2021/09/22 05:36:47;;;;;;;0.60;0.60;;;19.90;68.10;;;;;;5006198;28;95723;-48
2021/09/22 05:39:39;;;;;;;0.75;0.70;;;20.00;68.10;;;;;;4981826;28;95671;-51
2021/09/22 05:42:29;;;;;;;;;;;20.00;68.10;;;;;;4979445;28;95258;-52
2021/09/22 05:45:19;;;;;;;1.10;0.65;;;20.10;68.10;;;;;;4980011;28;95983;-52
2021/09/22 05:48:14;;;;;;;0.73;0.60;;;20.20;68.20;;;;;;4948600;28;96762;-50
2021/09/22 05:51:03;;;;;;;0.80;0.80;;;20.20;68.10;;;;;;4972233;28;96331;-49
2021/09/22 05:53:53;;;;;;;0.80;0.80;;;20.30;68.20;;;;;;4972038;28;96252;-55
2021/09/22 05:56:45;;;;;;;0.60;0.60;;;20.30;68.10;;;;;;4976635;28;98643;-50
2021/09/22 05:59:34;;;;;;;0.63;0.63;;;20.30;68.10;;;;;;4980952;28;95545;-51
2021/09/22 06:02:24;;;;;;;1.58;0.60;;;20.40;68.30;;;;;;4969881;28;95987;-53
2021/09/22 06:05:15;;;;;;;0.85;0.70;;;20.40;68.10;;;;;;4982644;28;96086;-53
2021/09/22 06:08:08;;;;;;;0.70;0.70;;;20.50;68.20;;;;;;4973930;28;96164;-49
2021/09/22 06:10:58;;;;;;;1.48;0.65;;;20.50;68.20;;;;;;4983970;28;98348;-53
2021/09/22 06:13:53;;;;;;;2.22;1.02;;;20.60;67.40;;;;;;4983951;28;95933;-52
2021/09/22 06:16:26;;;;;;;2.00;0.90;;;20.50;65.60;;;;;;4982712;27;99125;-54
2021/09/22 06:19:09;;;;;;;0.70;0.70;;;20.40;66.80;;;;;;5014424;27;97670;-49
2021/09/22 06:21:39;;;;;;;0.70;0.70;;;20.50;67.10;;;;;;4986941;28;95788;-51
2021/09/22 06:24:10;;;;;;;1.40;0.80;;;20.50;67.10;;;;;;4985129;28;96088;-49
2021/09/22 06:27:00;;;;;;;2.45;1.00;;;20.60;67.30;;;;;;4980663;28;95998;-53
2021/09/22 06:29:30;;;;;;;1.23;0.80;;;20.60;67.40;;;;;;4990369;28;95882;-51
2021/09/22 06:32:01;;;;;;;1.02;0.80;;;20.60;67.40;;;;;;4984474;28;95479;-54
2021/09/22 06:35:10;;;;;;;1.13;0.90;;;20.60;67.50;;;;;;4986924;28;96554;-50
2021/09/22 06:37:53;;;;;;;2.00;0.70;;;20.70;67.50;;;;;;4984836;28;97456;-52
2021/09/22 06:40:29;;;;;;;0.73;0.70;;;20.70;67.60;;;;;;4985797;28;95796;-54
2021/09/22 06:43:04;;;;;;;1.08;0.60;;;20.70;67.60;;;;;;5020861;27;98756;-56
2021/09/22 06:45:35;;;;;;;0.60;0.60;;;20.70;67.70;;;;;;4983935;28;97563;-51
2021/09/22 06:48:06;;;;;;;0.70;0.70;;;20.80;67.70;;;;;;4986402;28;97518;-53
2021/09/22 06:50:37;;;;;;;0.80;0.80;;;20.80;67.60;;;;;;4987352;28;95838;-54
2021/09/22 06:53:08;;;;;;;0.70;0.70;;;20.90;67.80;;;;;;4985107;28;96142;-48
2021/09/22 06:55:40;;;;;;;0.63;0.63;;;20.90;67.70;;;;;;4985884;28;96548;-52
2021/09/22 06:58:11;;;;;;;0.77;0.77;;;20.90;67.70;;;;;;4987690;28;95842;-56
2021/09/22 07:00:43;;;;;;;1.33;0.70;;;20.90;67.70;;;;;;4982931;28;97233;-53
2021/09/22 07:03:16;;;;;;;0.70;0.70;;;21.00;67.70;;;;;;4982028;28;95838;-54
2021/09/22 07:05:48;;;;;;;1.00;0.80;;;21.00;66.40;;;;;;4975947;28;96009;-54
2021/09/22 07:08:20;;;;;;;2.95;0.85;;;20.80;64.50;;;;;;4977729;28;96077;-53
2021/09/22 07:10:51;;;;;;;0.73;0.73;;;20.70;64.70;;;;;;4980739;28;96052;-51
2021/09/22 07:13:23;;;;;;;1.98;0.80;;;20.70;55.40;;;;;;4986587;28;96017;-49
2021/09/22 07:15:54;;;;;;;1.35;1.25;;;20.50;65.10;;;;;;5014323;27;95793;-52
2021/09/22 07:18:24;;;;;;;0.82;0.82;;;20.50;65.20;;;;;;4987277;28;95746;-50
2021/09/22 07:20:54;;;;;;;0.70;0.70;;;20.50;65.30;;;;;;4984709;28;95865;-52
2021/09/22 07:23:25;;;;;;;;;;;20.40;65.30;;;;;;4991295;28;95891;-52
2021/09/22 07:25:55;;;;;;;1.67;0.57;;;20.40;65.40;;;;;;4977903;28;95826;-52
2021/09/22 07:28:27;;;;;;;1.00;0.90;;;20.40;65.50;;;;;;4985617;28;95830;-49
2021/09/22 07:30:58;;;;;;;1.10;0.85;;;20.30;65.50;;;;;;4975253;28;98387;-50
2021/09/22 07:33:32;;;;;;;1.88;0.80;;;20.30;65.70;;;;;;4972771;28;97700;-47
2021/09/22 07:36:06;;;;;;;1.30;0.77;;;20.30;65.70;;;;;;4977474;28;96631;-51
2021/09/22 07:38:38;;;;;;;0.70;0.70;;;20.30;65.80;;;;;;4976857;28;95916;-55
2021/09/22 07:41:10;;;;;;;0.77;0.75;;;20.20;65.80;;;;;;4975786;28;95544;-56
2021/09/22 07:43:42;;;;;;;1.10;1.10;;;20.20;66.00;;;;;;4981085;28;95823;-53
2021/09/22 07:46:13;;;;;;;0.90;0.88;;;20.20;66.00;;;;;;4974561;28;96797;-47
2021/09/22 07:48:43;;;;;;;1.05;0.88;;;20.10;66.10;;;;;;4974951;28;95374;-53
2021/09/22 07:51:13;;;;;;;0.93;0.75;;;20.00;66.10;;;;;;4974165;28;97558;-49
2021/09/22 07:53:45;;;;;;;1.27;1.15;;;20.00;66.10;;;;;;4980559;28;95940;-50
2021/09/22 07:56:16;;;;;;;1.48;1.05;;;20.00;66.20;;;;;;4987316;28;96441;-48
2021/09/22 07:58:47;;;;;;;1.95;0.98;;;20.00;66.40;;;;;;4982439;28;97275;-48
2021/09/22 08:01:18;;;;;;;3.20;1.10;;;20.00;66.50;;;;;;4980831;28;97794;-53
2021/09/22 08:03:49;;;;;;;1.52;1.00;;;20.00;66.60;;;;;;4981911;28;96210;-52
2021/09/22 08:06:20;;;;;;;;;;;20.00;66.60;;;;;;4982415;28;95985;-52
2021/09/22 08:08:51;;;;;;;1.13;1.05;;;20.00;66.40;;;;;;4983717;28;96007;-50
2021/09/22 08:11:22;;;;;;;1.65;1.40;;;20.00;66.60;;;;;;4982260;28;96372;-50
2021/09/22 08:13:53;;;;;;;2.67;1.20;;;20.00;66.70;;;;;;4986839;28;95817;-51
2021/09/22 08:16:25;;;;;;;1.75;1.20;;;20.00;66.70;;;;;;4982520;28;96510;-50
2021/09/22 08:18:56;;;;;;;;;;;20.00;66.70;;;;;;4985046;28;95622;-49
2021/09/22 08:21:27;;;;;;;2.05;1.40;;;20.00;66.70;;;;;;4987961;28;96003;-51
2021/09/22 08:23:57;;;;;;;;;;;20.00;66.70;;;;;;4987397;28;95722;-53
2021/09/22 08:26:28;;;;;;;2.25;2.15;;;20.00;66.70;;;;;;4988099;28;95814;-50
2021/09/22 08:28:59;;;;;;;2.17;1.55;;;20.00;67.20;;;;;;4998082;28;100106;-48
2021/09/22 08:31:29;;;;;;;1.60;1.50;;;20.00;62.20;;;;;;4982246;28;95796;-49
2021/09/22 08:33:59;;;;;;;2.15;1.25;;;19.90;66.80;;;;;;4985404;28;95277;-51
2021/09/22 08:36:31;;;;;;;;;;;19.90;66.90;;;;;;4986639;28;95929;-54
2021/09/22 08:39:03;;;;;;;;;;;19.90;66.90;;;;;;4987742;28;95507;-52
2021/09/22 08:41:36;;;;;;;1.80;1.70;;;19.90;66.90;;;;;;4984715;28;96022;-53
2021/09/22 08:44:13;;;;;;;2.83;1.70;;;19.90;67.00;;;;;;4976109;28;95932;-50
2021/09/22 08:46:45;;;;;;;2.40;1.85;;;19.90;66.90;;;;;;4981729;28;96518;-54
2021/09/22 08:49:15;;;;;;;;;;;19.90;67.10;;;;;;4993948;28;95842;-54
2021/09/22 08:51:46;;;;;;;2.60;2.40;;;19.90;66.90;;;;;;4985853;28;95455;-51
2021/09/22 08:54:18;;;;;;;15.25;3.47;;;19.90;67.00;;;;;;4979889;28;95355;-51
2021/09/22 08:56:50;;;;;;;3.97;3.35;;;19.90;67.10;;;;;;4985453;28;96449;-52
2021/09/22 08:59:22;;;;;;;3.97;3.45;;;19.90;67.30;;;;;;4986211;28;95807;-59
2021/09/22 09:02:22;;;;;;;4.88;3.95;;;19.90;67.30;;;;;;4976351;28;98268;-52
2021/09/22 09:05:06;;;;;;;6.15;4.32;;;19.90;67.30;;;;;;4978517;28;96015;-53
2021/09/22 09:07:50;;;;;;;4.53;3.90;;;19.80;67.40;;;;;;4975257;28;96487;-54
2021/09/22 09:10:32;;;;;;;6.10;4.60;;;19.90;67.50;;;;;;4976892;28;95374;-52
2021/09/22 09:13:10;;;;;;;4.03;3.33;;;19.90;67.60;;;;;;4986329;28;95941;-51
2021/09/22 09:15:47;;;;;;;4.35;3.95;;;19.80;67.60;;;;;;4981570;28;96001;-50
2021/09/22 09:18:25;;;;;;;5.30;3.90;;;19.80;67.90;;;;;;4985958;28;95900;-50
2021/09/22 09:20:55;;;;;;;6.18;4.05;;;19.80;68.30;;;;;;4985478;28;96352;-53
2021/09/22 09:23:29;;;;;;;4.43;3.85;;;19.70;68.40;;;;;;4983228;28;95806;-53
2021/09/22 09:26:03;;;;;;;5.95;3.45;;;19.70;68.30;;;;;;4982913;28;95800;-54
2021/09/22 09:28:37;;;;;;;4.75;3.85;;;19.80;58.30;;;;;;4973116;28;96889;-52
2021/09/22 09:31:11;;;;;;;4.82;3.78;;;19.70;68.40;;;;;;4970211;28;97751;-51
2021/09/22 09:33:49;;;;;;;5.47;4.60;;;19.70;68.50;;;;;;4979198;28;95839;-53
2021/09/22 09:36:31;;;;;;;3.45;3.03;;;19.70;68.50;;;;;;4983847;28;96008;-53
2021/09/22 09:39:19;;;;;;;5.25;3.75;;;19.70;68.50;;;;;;4983111;28;96045;-51
2021/09/22 09:41:53;;;;;;;4.10;3.13;;;19.70;68.40;;;;;;4982982;27;95973;-50
2021/09/22 09:44:34;;;;;;;3.95;3.08;;;19.60;68.50;;;;;;4985220;28;95520;-49
2021/09/22 09:47:12;;;;;;;4.35;3.38;;;19.60;68.70;;;;;;4983329;28;95444;-52
2021/09/22 09:49:43;;;;;;;4.40;2.88;;;19.60;68.70;;;;;;4976233;28;96528;-53
2021/09/22 09:52:14;;;;;;;3.40;2.80;;;19.50;68.70;;;;;;4984151;28;95726;-50
2021/09/22 09:54:52;;;;;;;3.95;3.30;;;19.50;68.70;;;;;;4984918;28;95269;-52
2021/09/22 09:57:23;;;;;;;3.53;3.22;;;19.50;68.70;;;;;;4981860;28;95254;-54
2021/09/22 09:59:54;;;;;;;;;;;19.50;68.60;;;;;;4982833;28;95972;-54
2021/09/22 10:02:28;;;;;;;2.78;2.42;;;19.50;69.00;;;;;;4977910;28;95889;-55
2021/09/22 10:05:02;;;;;;;3.58;3.25;;;19.40;69.20;;;;;;4984731;28;96733;-51
2021/09/22 10:07:35;;;;;;;6.22;3.55;;;19.40;69.30;;;;;;4976567;28;95821;-55
2021/09/22 10:10:08;;;;;;;2.97;2.30;;;19.40;69.40;;;;;;4980834;28;95925;-54
2021/09/22 10:12:41;;;;;;;4.45;3.45;;;19.40;69.40;;;;;;4974116;28;95988;-54
2021/09/22 10:15:13;;;;;;;3.22;2.60;;;19.40;69.50;;;;;;4983045;28;95223;-53
2021/09/22 10:17:44;;;;;;;3.10;1.80;;;19.50;69.50;;;;;;5014631;27;95728;-55
2021/09/22 10:20:19;;;;;;;2.17;1.98;;;19.50;69.40;;;;;;4979387;28;95913;-52
2021/09/22 10:22:49;;;;;;;2.83;2.53;;;19.50;69.40;;;;;;4972235;28;96918;-54
2021/09/22 10:25:24;;;;;;;2.92;2.10;;;19.60;69.50;;;;;;4976587;28;95659;-56
2021/09/22 10:27:55;;;;;;;2.53;2.20;;;19.60;69.30;;;;;;4972333;28;95564;-57
2021/09/22 10:30:38;;;;;;;2.95;2.50;;;19.60;69.20;;;;;;4973193;28;96884;-56
2021/09/22 10:33:27;;;;;;;3.22;2.10;;;19.60;69.00;;;;;;4977072;28;95794;-56
2021/09/22 10:36:02;;;;;;;1.88;1.58;;;19.60;68.90;;;;;;4976721;28;95813;-56
2021/09/22 10:38:33;;;;;;;2.15;1.95;;;19.60;68.80;;;;;;4970817;28;95879;-55
2021/09/22 10:41:08;;;;;;;2.42;1.67;;;19.60;68.70;;;;;;4974121;28;95931;-54
2021/09/22 10:43:45;;;;;;;1.65;1.55;;;19.70;59.20;;;;;;4970021;28;95834;-52
2021/09/22 10:46:25;;;;;;;2.08;1.73;;;19.60;68.60;;;;;;4971176;28;96086;-55
2021/09/22 10:49:01;;;;;;;2.72;2.17;;;19.60;68.60;;;;;;4979509;28;95761;-52
2021/09/22 10:51:43;;;;;;;2.20;1.67;;;19.50;68.40;;;;;;4965038;28;95903;-54
2021/09/22 10:54:22;;;;;;;2.70;1.80;;;19.60;68.40;;;;;;4980043;28;96076;-55
2021/09/22 10:57:03;;;;;;;2.17;1.50;;;19.50;68.40;;;;;;4975104;28;96134;-54
2021/09/22 10:59:40;;;;;;;2.43;1.77;;;19.50;68.30;;;;;;4974453;28;95844;-57
2021/09/22 11:02:11;;;;;;;2.08;1.98;;;19.50;68.30;;;;;;4973208;28;96826;-56
2021/09/22 11:05:14;;;;;;;1.77;1.58;;;19.50;68.30;;;;;;4983770;28;95774;-58
2021/09/22 11:07:54;;;;;;;1.90;1.80;;;19.50;68.20;;;;;;4981068;28;98936;-56
2021/09/22 11:10:33;;;;;;;1.65;1.55;;;19.50;68.10;;;;;;4979414;28;96050;-56
2021/09/22 11:13:28;;;;;;;1.75;1.65;;;19.50;68.20;;;;;;4987214;28;95867;-55
2021/09/22 11:16:15;;;;;;;1.60;1.50;;;19.50;68.10;;;;;;4980880;28;95701;-53
2021/09/22 11:18:51;;;;;;;1.70;1.60;;;19.50;68.10;;;;;;4978654;28;95804;-57
2021/09/22 11:21:23;;;;;;;1.13;1.13;;;19.50;68.10;;;;;;4983786;28;95345;-54
2021/09/22 11:23:53;;;;;;;1.75;1.65;;;19.40;68.00;;;;;;4976879;28;96590;-55
2021/09/22 11:26:24;;;;;;;1.60;1.50;;;19.40;68.00;;;;;;4982296;28;95801;-57
2021/09/22 11:28:57;;;;;;;1.50;1.40;;;19.40;67.90;;;;;;5015123;27;95500;-53
2021/09/22 11:31:36;;;;;;;1.40;1.30;;;19.40;68.00;;;;;;4981586;28;98649;-53
2021/09/22 11:34:07;;;;;;;1.48;1.38;;;19.40;68.00;;;;;;4987931;28;95871;-53
2021/09/22 11:36:38;;;;;;;1.55;1.40;;;19.40;67.90;;;;;;4987023;28;95268;-50
2021/09/22 11:39:27;;;;;;;1.42;1.33;;;19.30;67.90;;;;;;4987446;28;95758;-53
2021/09/22 11:41:58;;;;;;;1.40;1.30;;;19.30;67.90;;;;;;4983309;28;96034;-53
2021/09/22 11:44:30;;;;;;;1.55;1.45;;;19.30;67.90;;;;;;4974883;28;95930;-55
2021/09/22 11:47:04;;;;;;;1.67;1.58;;;19.30;67.90;;;;;;4973127;28;95709;-52
2021/09/22 11:49:44;;;;;;;1.70;1.33;;;19.30;67.90;;;;;;4988050;28;95642;-54
2021/09/22 11:52:20;;;;;;;2.20;2.00;;;19.30;68.50;;;;;;4984706;28;95889;-52
2021/09/22 11:54:57;;;;;;;1.70;1.60;;;19.30;67.90;;;;;;4982488;28;97783;-54
2021/09/22 11:57:30;;;;;;;1.60;1.50;;;19.30;67.90;;;;;;4983965;28;96399;-51
2021/09/22 12:00:03;;;;;;;1.88;1.77;;;19.30;67.90;;;;;;4985784;28;97696;-51
2021/09/22 12:02:36;;;;;;;1.38;1.27;;;19.30;67.80;;;;;;4986482;28;96033;-57
2021/09/22 12:05:14;;;;;;;2.47;1.80;;;19.20;68.40;;;;;;4986193;28;95860;-52
2021/09/22 12:07:46;;;;;;;3.92;1.95;;;19.20;67.70;;;;;;4980744;28;96363;-50
2021/09/22 12:10:19;;;;;;;1.70;1.60;;;19.10;67.80;;;;;;4976120;28;95919;-51
2021/09/22 12:12:51;;;;;;;2.92;1.88;;;19.00;68.00;;;;;;4985759;28;95892;-52
2021/09/22 12:15:22;;;;;;;2.47;2.28;;;19.00;68.10;;;;;;4982085;28;96120;-50
2021/09/22 12:17:53;;;;;;;2.15;1.92;;;19.00;68.20;;;;;;4984709;28;96576;-51
2021/09/22 12:20:25;;;;;;;2.13;1.83;;;18.90;68.40;;;;;;4987067;28;95243;-49
2021/09/22 12:23:03;;;;;;;3.08;2.50;;;19.00;68.60;;;;;;4986112;28;95893;-50
2021/09/22 12:25:36;;;;;;;1.75;1.63;;;19.00;68.70;;;;;;4986470;28;96999;-53
2021/09/22 12:28:17;;;;;;;2.25;1.85;;;19.10;68.80;;;;;;4984647;28;95652;-53
2021/09/22 12:30:48;;;;;;;1.42;1.33;;;19.20;68.90;;;;;;4981528;28;96535;-48
2021/09/22 12:33:21;;;;;;;2.20;1.70;;;19.20;68.90;;;;;;4987956;28;95690;-50
2021/09/22 12:35:51;;;;;;;2.13;1.63;;;19.20;68.40;;;;;;4986235;28;95868;-52
2021/09/22 12:38:22;;;;;;;2.10;1.83;;;19.20;68.00;;;;;;4981655;28;95749;-52
2021/09/22 12:40:56;;;;;;;2.72;2.10;;;19.00;68.10;;;;;;4982361;28;96338;-52
2021/09/22 12:43:29;;;;;;;2.53;1.83;;;19.00;68.20;;;;;;4980550;28;96606;-53
2021/09/22 12:46:09;;;;;;;2.30;2.10;;;19.00;68.30;;;;;;4979533;28;95937;-54
2021/09/22 12:48:41;;;;;;;1.80;1.70;;;18.90;68.40;;;;;;4985549;28;95909;-51
2021/09/22 12:51:29;;;;;;;2.28;1.90;;;18.80;68.40;;;;;;4984252;28;95886;-55
2021/09/22 12:54:09;;;;;;;2.03;1.80;;;18.80;68.60;;;;;;4986217;28;95687;-57
2021/09/22 12:56:41;;;;;;;2.33;1.70;;;18.80;68.80;;;;;;4989102;28;95904;-54
2021/09/22 12:59:28;;;;;;;1.90;1.80;;;19.00;59.40;;;;;;5019529;27;95531;-52
2021/09/22 13:02:00;;;;;;;3.88;1.48;;;19.00;69.00;;;;;;4981668;28;96023;-50
2021/09/22 13:04:32;;;;;;;1.48;1.38;;;19.00;69.00;;;;;;4987297;28;95832;-54
2021/09/22 13:07:03;;;;;;;1.67;1.58;;;19.10;69.10;;;;;;4988640;28;95855;-56
2021/09/22 13:09:36;;;;;;;1.40;1.30;;;19.20;68.90;;;;;;4979006;28;95358;-52
2021/09/22 13:12:08;;;;;;;1.77;1.67;;;19.30;68.80;;;;;;4987361;28;96241;-54
2021/09/22 13:14:41;;;;;;;1.75;1.33;;;19.50;68.50;;;;;;4986781;28;96149;-56
2021/09/22 13:17:12;;;;;;;2.03;1.75;;;19.60;68.40;;;;;;4982611;28;96591;-55
2021/09/22 13:19:42;;;;;;;2.95;2.40;;;19.70;68.10;;;;;;4986490;28;96024;-55
2021/09/22 13:22:12;;;;;;;2.22;2.03;;;19.80;68.00;;;;;;4989127;28;95765;-54
2021/09/22 13:24:44;;;;;;;3.72;2.17;;;19.90;68.00;;;;;;4989340;28;95950;-55
2021/09/22 13:27:15;;;;;;;3.00;2.67;;;20.00;67.80;;;;;;4989366;28;96371;-53
2021/09/22 13:29:45;;;;;;;2.45;2.25;;;20.10;67.80;;;;;;4970587;28;97357;-54
2021/09/22 13:32:15;;;;;;;2.50;2.30;;;20.20;67.70;;;;;;4965725;28;95353;-54
2021/09/22 13:34:45;;;;;;;3.15;2.75;;;20.20;67.50;;;;;;4967055;28;96229;-54
2021/09/22 13:37:15;;;;;;;4.15;2.65;;;20.30;67.40;;;;;;4967409;28;97782;-56